sensor_id;sensor_type;location;lat;lon;timestamp;temperature;humidity
15013;DHT22;7603;49.432;11.418;2023-11-18T00:01:20;0.80;99.90
15013;DHT22;7603;49.432;11.418;2023-11-18T00:03:46;0.70;99.90
15013;DHT22;7603;49.432;11.418;2023-11-18T00:06:11;0.60;99.90
15013;DHT22;7603;49.432;11.418;2023-11-18T00:08:38;0.40;99.90
15013;DHT22;7603;49.432;11.418;2023-11-18T00:11:03;0.30;99.90
15013;DHT22;7603;49.432;11.418;2023-11-18T00:13:29;0.20;99.90
15013;DHT22;7603;49.432;11.418;2023-11-18T00:15:55;0.10;99.90
15013;DHT22;7603;49.432;11.418;2023-11-18T00:18:21;0.00;99.90
15013;DHT22;7603;49.432;11.418;2023-11-18T00:20:46;-0.10;99.90
15013;DHT22;7603;49.432;11.418;2023-11-18T00:23:12;-0.10;99.90
15013;DHT22;7603;49.432;11.418;2023-11-18T00:25:38;-0.20;99.90
15013;DHT22;7603;49.432;11.418;2023-11-18T00:28:05;-0.30;99.90
15013;DHT22;7603;49.432;11.418;2023-11-18T00:30:33;-0.40;99.90
15013;DHT22;7603;49.432;11.418;2023-11-18T00:32:59;-0.40;99.90
15013;DHT22;7603;49.432;11.418;2023-11-18T00:35:24;-0.40;99.90
15013;DHT22;7603;49.432;11.418;2023-11-18T00:37:50;-0.30;99.90
15013;DHT22;7603;49.432;11.418;2023-11-18T00:40:15;-0.20;99.90
15013;DHT22;7603;49.432;11.418;2023-11-18T00:42:44;-0.20;99.90
15013;DHT22;7603;49.432;11.418;2023-11-18T00:45:10;-0.10;99.90
15013;DHT22;7603;49.432;11.418;2023-11-18T00:47:38;0.00;99.90
15013;DHT22;7603;49.432;11.418;2023-11-18T00:50:04;0.00;99.90
15013;DHT22;7603;49.432;11.418;2023-11-18T00:52:33;-0.10;99.90
15013;DHT22;7603;49.432;11.418;2023-11-18T00:54:59;-0.10;99.90
15013;DHT22;7603;49.432;11.418;2023-11-18T00:57:25;-0.20;99.90
15013;DHT22;7603;49.432;11.418;2023-11-18T00:59:51;-0.30;99.90
15013;DHT22;7603;49.432;11.418;2023-11-18T01:02:16;-0.30;99.90
15013;DHT22;7603;49.432;11.418;2023-11-18T01:04:44;-0.40;99.90
15013;DHT22;7603;49.432;11.418;2023-11-18T01:07:11;-0.40;99.90
15013;DHT22;7603;49.432;11.418;2023-11-18T01:09:38;-0.40;99.90
15013;DHT22;7603;49.432;11.418;2023-11-18T01:12:05;-0.40;99.90
15013;DHT22;7603;49.432;11.418;2023-11-18T01:14:31;-0.30;99.90
15013;DHT22;7603;49.432;11.418;2023-11-18T01:16:57;-0.20;99.90
15013;DHT22;7603;49.432;11.418;2023-11-18T01:19:22;-0.30;99.90
15013;DHT22;7603;49.432;11.418;2023-11-18T01:21:49;-0.30;99.90
15013;DHT22;7603;49.432;11.418;2023-11-18T01:24:14;-0.30;99.90
15013;DHT22;7603;49.432;11.418;2023-11-18T01:26:41;-0.20;99.90
15013;DHT22;7603;49.432;11.418;2023-11-18T01:29:07;-0.40;99.90
15013;DHT22;7603;49.432;11.418;2023-11-18T01:31:33;-0.40;99.90
15013;DHT22;7603;49.432;11.418;2023-11-18T01:33:58;-0.40;99.90
15013;DHT22;7603;49.432;11.418;2023-11-18T01:36:25;-0.30;99.90
15013;DHT22;7603;49.432;11.418;2023-11-18T01:38:50;-0.30;99.90
15013;DHT22;7603;49.432;11.418;2023-11-18T01:41:16;-0.20;99.90
15013;DHT22;7603;49.432;11.418;2023-11-18T01:43:45;-0.20;99.90
15013;DHT22;7603;49.432;11.418;2023-11-18T01:46:12;-0.20;99.90
15013;DHT22;7603;49.432;11.418;2023-11-18T01:48:40;-0.20;99.90
15013;DHT22;7603;49.432;11.418;2023-11-18T01:51:07;-0.10;99.90
15013;DHT22;7603;49.432;11.418;2023-11-18T01:53:36;-0.10;99.90
15013;DHT22;7603;49.432;11.418;2023-11-18T01:56:03;-0.10;99.90
15013;DHT22;7603;49.432;11.418;2023-11-18T01:58:32;-0.10;99.90
15013;DHT22;7603;49.432;11.418;2023-11-18T02:00:58;-0.10;99.90
15013;DHT22;7603;49.432;11.418;2023-11-18T02:03:24;-0.10;99.90
15013;DHT22;7603;49.432;11.418;2023-11-18T02:05:52;-0.20;99.90
15013;DHT22;7603;49.432;11.418;2023-11-18T02:08:19;-0.20;99.90
15013;DHT22;7603;49.432;11.418;2023-11-18T02:11:28;-0.30;99.90
15013;DHT22;7603;49.432;11.418;2023-11-18T02:13:48;-0.40;99.90
15013;DHT22;7603;49.432;11.418;2023-11-18T02:16:16;-0.50;99.90
15013;DHT22;7603;49.432;11.418;2023-11-18T02:18:43;-0.60;99.90
15013;DHT22;7603;49.432;11.418;2023-11-18T02:21:11;-0.70;99.90
15013;DHT22;7603;49.432;11.418;2023-11-18T02:23:37;-0.80;99.90
15013;DHT22;7603;49.432;11.418;2023-11-18T02:26:03;-0.80;99.90
15013;DHT22;7603;49.432;11.418;2023-11-18T02:28:31;-0.80;99.90
15013;DHT22;7603;49.432;11.418;2023-11-18T02:31:03;-0.90;99.90
15013;DHT22;7603;49.432;11.418;2023-11-18T02:33:36;-0.90;99.90
15013;DHT22;7603;49.432;11.418;2023-11-18T02:36:31;-1.00;99.90
15013;DHT22;7603;49.432;11.418;2023-11-18T02:39:04;-1.00;99.90
15013;DHT22;7603;49.432;11.418;2023-11-18T02:41:34;-1.10;99.90
15013;DHT22;7603;49.432;11.418;2023-11-18T02:44:02;-1.20;99.90
15013;DHT22;7603;49.432;11.418;2023-11-18T02:46:28;-1.30;99.90
15013;DHT22;7603;49.432;11.418;2023-11-18T02:48:54;-1.40;99.90
15013;DHT22;7603;49.432;11.418;2023-11-18T02:51:20;-1.40;99.90
15013;DHT22;7603;49.432;11.418;2023-11-18T02:53:46;-1.50;99.90
15013;DHT22;7603;49.432;11.418;2023-11-18T02:56:11;-1.40;99.90
15013;DHT22;7603;49.432;11.418;2023-11-18T02:58:37;-1.50;99.90
15013;DHT22;7603;49.432;11.418;2023-11-18T03:01:03;-1.50;99.90
15013;DHT22;7603;49.432;11.418;2023-11-18T03:03:30;-1.60;99.90
15013;DHT22;7603;49.432;11.418;2023-11-18T03:05:55;-1.60;99.90
15013;DHT22;7603;49.432;11.418;2023-11-18T03:08:21;-1.60;99.90
15013;DHT22;7603;49.432;11.418;2023-11-18T03:10:47;-1.60;99.90
15013;DHT22;7603;49.432;11.418;2023-11-18T03:13:12;-1.70;99.90
15013;DHT22;7603;49.432;11.418;2023-11-18T03:15:38;-1.70;99.90
15013;DHT22;7603;49.432;11.418;2023-11-18T03:18:04;-1.80;99.90
15013;DHT22;7603;49.432;11.418;2023-11-18T03:20:31;-1.80;99.90
15013;DHT22;7603;49.432;11.418;2023-11-18T03:22:59;-1.80;99.90
15013;DHT22;7603;49.432;11.418;2023-11-18T03:25:26;-1.80;99.90
15013;DHT22;7603;49.432;11.418;2023-11-18T03:27:52;-1.80;99.90
15013;DHT22;7603;49.432;11.418;2023-11-18T03:30:20;-1.80;99.90
15013;DHT22;7603;49.432;11.418;2023-11-18T03:32:46;-1.90;99.90
15013;DHT22;7603;49.432;11.418;2023-11-18T03:35:11;-1.90;99.90
15013;DHT22;7603;49.432;11.418;2023-11-18T03:37:40;-1.90;99.90
15013;DHT22;7603;49.432;11.418;2023-11-18T03:40:11;-2.00;99.90
15013;DHT22;7603;49.432;11.418;2023-11-18T03:42:37;-2.00;99.90
15013;DHT22;7603;49.432;11.418;2023-11-18T03:45:03;-2.00;99.90
15013;DHT22;7603;49.432;11.418;2023-11-18T03:47:29;-2.00;99.90
15013;DHT22;7603;49.432;11.418;2023-11-18T03:49:56;-2.10;99.90
15013;DHT22;7603;49.432;11.418;2023-11-18T03:52:22;-2.10;99.90
15013;DHT22;7603;49.432;11.418;2023-11-18T03:54:48;-2.20;99.90
15013;DHT22;7603;49.432;11.418;2023-11-18T03:57:13;-2.10;99.90
15013;DHT22;7603;49.432;11.418;2023-11-18T03:59:39;-2.20;99.90
15013;DHT22;7603;49.432;11.418;2023-11-18T04:02:06;-2.20;99.90
15013;DHT22;7603;49.432;11.418;2023-11-18T04:04:32;-2.10;99.90
15013;DHT22;7603;49.432;11.418;2023-11-18T04:06:58;-2.20;99.90
15013;DHT22;7603;49.432;11.418;2023-11-18T04:09:26;-2.20;99.90
15013;DHT22;7603;49.432;11.418;2023-11-18T04:11:52;-2.20;99.90
15013;DHT22;7603;49.432;11.418;2023-11-18T04:14:18;-2.30;99.90
15013;DHT22;7603;49.432;11.418;2023-11-18T04:16:45;-2.20;99.90
15013;DHT22;7603;49.432;11.418;2023-11-18T04:19:11;-2.30;99.90
15013;DHT22;7603;49.432;11.418;2023-11-18T04:21:37;-2.30;99.90
15013;DHT22;7603;49.432;11.418;2023-11-18T04:24:04;-2.40;99.90
15013;DHT22;7603;49.432;11.418;2023-11-18T04:26:31;-2.40;99.90
15013;DHT22;7603;49.432;11.418;2023-11-18T04:28:57;-2.30;99.90
15013;DHT22;7603;49.432;11.418;2023-11-18T04:31:22;-2.30;99.90
15013;DHT22;7603;49.432;11.418;2023-11-18T04:33:48;-2.30;99.90
15013;DHT22;7603;49.432;11.418;2023-11-18T04:36:14;-2.20;99.90
15013;DHT22;7603;49.432;11.418;2023-11-18T04:38:42;-2.20;99.90
15013;DHT22;7603;49.432;11.418;2023-11-18T04:41:07;-2.10;99.90
15013;DHT22;7603;49.432;11.418;2023-11-18T04:43:33;-2.00;99.90
15013;DHT22;7603;49.432;11.418;2023-11-18T04:45:59;-1.90;99.90
15013;DHT22;7603;49.432;11.418;2023-11-18T04:48:25;-1.80;99.90
15013;DHT22;7603;49.432;11.418;2023-11-18T04:50:50;-1.60;99.90
15013;DHT22;7603;49.432;11.418;2023-11-18T04:53:16;-1.40;99.90
15013;DHT22;7603;49.432;11.418;2023-11-18T04:55:42;-1.30;99.90
15013;DHT22;7603;49.432;11.418;2023-11-18T04:58:08;-1.10;99.90
15013;DHT22;7603;49.432;11.418;2023-11-18T05:00:37;-1.00;99.90
15013;DHT22;7603;49.432;11.418;2023-11-18T05:03:07;-0.90;99.90
15013;DHT22;7603;49.432;11.418;2023-11-18T05:05:39;-0.70;99.90
15013;DHT22;7603;49.432;11.418;2023-11-18T05:08:06;-0.60;99.90
15013;DHT22;7603;49.432;11.418;2023-11-18T05:10:32;-0.60;99.90
15013;DHT22;7603;49.432;11.418;2023-11-18T05:12:58;-0.40;99.90
15013;DHT22;7603;49.432;11.418;2023-11-18T05:15:23;-0.20;99.90
15013;DHT22;7603;49.432;11.418;2023-11-18T05:17:54;-0.10;99.90
15013;DHT22;7603;49.432;11.418;2023-11-18T05:20:20;0.00;99.90
15013;DHT22;7603;49.432;11.418;2023-11-18T05:22:46;0.10;99.90
15013;DHT22;7603;49.432;11.418;2023-11-18T05:25:12;0.10;99.90
15013;DHT22;7603;49.432;11.418;2023-11-18T05:27:38;0.20;99.90
15013;DHT22;7603;49.432;11.418;2023-11-18T05:30:10;0.30;99.90
15013;DHT22;7603;49.432;11.418;2023-11-18T05:32:36;0.40;99.90
15013;DHT22;7603;49.432;11.418;2023-11-18T05:35:03;0.40;99.90
15013;DHT22;7603;49.432;11.418;2023-11-18T05:37:30;0.50;99.90
15013;DHT22;7603;49.432;11.418;2023-11-18T05:40:01;0.50;99.90
15013;DHT22;7603;49.432;11.418;2023-11-18T05:42:35;0.60;99.90
15013;DHT22;7603;49.432;11.418;2023-11-18T05:45:06;0.60;99.90
15013;DHT22;7603;49.432;11.418;2023-11-18T05:47:35;0.70;99.90
15013;DHT22;7603;49.432;11.418;2023-11-18T05:50:01;0.70;99.90
15013;DHT22;7603;49.432;11.418;2023-11-18T05:52:26;0.70;99.90
15013;DHT22;7603;49.432;11.418;2023-11-18T05:54:52;0.80;99.90
15013;DHT22;7603;49.432;11.418;2023-11-18T05:57:20;0.80;99.90
15013;DHT22;7603;49.432;11.418;2023-11-18T05:59:46;0.90;99.90
15013;DHT22;7603;49.432;11.418;2023-11-18T06:02:13;0.90;99.90
15013;DHT22;7603;49.432;11.418;2023-11-18T06:04:44;0.90;99.90
15013;DHT22;7603;49.432;11.418;2023-11-18T06:07:09;0.90;99.90
15013;DHT22;7603;49.432;11.418;2023-11-18T06:09:35;0.90;99.90
15013;DHT22;7603;49.432;11.418;2023-11-18T06:12:01;0.90;99.90
15013;DHT22;7603;49.432;11.418;2023-11-18T06:14:27;0.90;99.90
15013;DHT22;7603;49.432;11.418;2023-11-18T06:16:53;0.90;99.90
15013;DHT22;7603;49.432;11.418;2023-11-18T06:19:19;0.90;99.90
15013;DHT22;7603;49.432;11.418;2023-11-18T06:21:45;1.00;99.90
15013;DHT22;7603;49.432;11.418;2023-11-18T06:24:11;1.00;99.90
15013;DHT22;7603;49.432;11.418;2023-11-18T06:26:39;0.90;99.90
15013;DHT22;7603;49.432;11.418;2023-11-18T06:29:04;1.00;99.90
15013;DHT22;7603;49.432;11.418;2023-11-18T06:31:31;0.90;99.90
15013;DHT22;7603;49.432;11.418;2023-11-18T06:33:57;0.90;99.90
15013;DHT22;7603;49.432;11.418;2023-11-18T06:36:23;1.00;99.90
15013;DHT22;7603;49.432;11.418;2023-11-18T06:38:52;1.00;99.90
15013;DHT22;7603;49.432;11.418;2023-11-18T06:41:20;1.00;99.90
15013;DHT22;7603;49.432;11.418;2023-11-18T06:43:48;1.00;99.90
15013;DHT22;7603;49.432;11.418;2023-11-18T06:48:55;1.00;99.90
15013;DHT22;7603;49.432;11.418;2023-11-18T06:51:21;1.10;99.90
15013;DHT22;7603;49.432;11.418;2023-11-18T06:53:53;1.10;99.90
15013;DHT22;7603;49.432;11.418;2023-11-18T06:56:21;1.10;99.90
15013;DHT22;7603;49.432;11.418;2023-11-18T06:58:46;1.20;99.90
15013;DHT22;7603;49.432;11.418;2023-11-18T07:01:13;1.20;99.90
15013;DHT22;7603;49.432;11.418;2023-11-18T07:03:46;1.30;99.90
15013;DHT22;7603;49.432;11.418;2023-11-18T07:06:18;1.40;99.90
15013;DHT22;7603;49.432;11.418;2023-11-18T07:08:53;1.40;99.90
15013;DHT22;7603;49.432;11.418;2023-11-18T07:11:19;1.40;99.90
15013;DHT22;7603;49.432;11.418;2023-11-18T07:13:47;1.40;99.90
15013;DHT22;7603;49.432;11.418;2023-11-18T07:16:13;1.40;99.90
15013;DHT22;7603;49.432;11.418;2023-11-18T07:18:40;1.30;99.90
15013;DHT22;7603;49.432;11.418;2023-11-18T07:21:05;1.30;99.90
15013;DHT22;7603;49.432;11.418;2023-11-18T07:23:32;1.20;99.90
15013;DHT22;7603;49.432;11.418;2023-11-18T07:25:58;1.20;99.90
15013;DHT22;7603;49.432;11.418;2023-11-18T07:28:23;1.20;99.90
15013;DHT22;7603;49.432;11.418;2023-11-18T07:30:49;1.20;99.90
15013;DHT22;7603;49.432;11.418;2023-11-18T07:33:15;1.20;99.90
15013;DHT22;7603;49.432;11.418;2023-11-18T07:35:42;1.20;99.90
15013;DHT22;7603;49.432;11.418;2023-11-18T07:38:07;1.20;99.90
15013;DHT22;7603;49.432;11.418;2023-11-18T07:40:33;1.10;99.90
15013;DHT22;7603;49.432;11.418;2023-11-18T07:43:00;1.10;99.90
15013;DHT22;7603;49.432;11.418;2023-11-18T07:45:35;1.10;99.90
15013;DHT22;7603;49.432;11.418;2023-11-18T07:48:04;1.20;99.90
15013;DHT22;7603;49.432;11.418;2023-11-18T07:50:35;1.10;99.90
15013;DHT22;7603;49.432;11.418;2023-11-18T07:53:01;1.20;99.90
15013;DHT22;7603;49.432;11.418;2023-11-18T07:55:28;1.40;99.90
15013;DHT22;7603;49.432;11.418;2023-11-18T07:57:54;1.60;99.90
15013;DHT22;7603;49.432;11.418;2023-11-18T08:00:20;2.10;99.90
15013;DHT22;7603;49.432;11.418;2023-11-18T08:02:46;2.50;99.90
15013;DHT22;7603;49.432;11.418;2023-11-18T08:05:12;3.00;99.90
15013;DHT22;7603;49.432;11.418;2023-11-18T08:07:41;3.60;99.90
15013;DHT22;7603;49.432;11.418;2023-11-18T08:10:07;4.20;99.90
15013;DHT22;7603;49.432;11.418;2023-11-18T08:12:39;4.90;99.90
15013;DHT22;7603;49.432;11.418;2023-11-18T08:15:06;5.40;99.90
15013;DHT22;7603;49.432;11.418;2023-11-18T08:17:35;5.70;99.90
15013;DHT22;7603;49.432;11.418;2023-11-18T08:20:01;6.10;99.90
15013;DHT22;7603;49.432;11.418;2023-11-18T08:22:26;6.50;99.90
15013;DHT22;7603;49.432;11.418;2023-11-18T08:24:52;7.00;99.90
15013;DHT22;7603;49.432;11.418;2023-11-18T08:27:18;7.60;99.90
15013;DHT22;7603;49.432;11.418;2023-11-18T08:29:43;8.30;99.90
15013;DHT22;7603;49.432;11.418;2023-11-18T08:32:11;8.70;99.90
15013;DHT22;7603;49.432;11.418;2023-11-18T08:34:37;9.00;99.90
15013;DHT22;7603;49.432;11.418;2023-11-18T08:37:06;9.20;99.90
15013;DHT22;7603;49.432;11.418;2023-11-18T08:39:32;9.10;99.90
15013;DHT22;7603;49.432;11.418;2023-11-18T08:41:58;9.10;99.90
15013;DHT22;7603;49.432;11.418;2023-11-18T08:44:24;8.90;99.90
15013;DHT22;7603;49.432;11.418;2023-11-18T08:46:53;8.80;99.90
15013;DHT22;7603;49.432;11.418;2023-11-18T08:49:19;8.50;99.90
15013;DHT22;7603;49.432;11.418;2023-11-18T08:51:50;8.40;99.90
15013;DHT22;7603;49.432;11.418;2023-11-18T08:54:22;8.30;99.90
15013;DHT22;7603;49.432;11.418;2023-11-18T08:56:53;8.20;99.90
15013;DHT22;7603;49.432;11.418;2023-11-18T08:59:23;8.10;99.90
15013;DHT22;7603;49.432;11.418;2023-11-18T09:01:52;8.10;99.90
15013;DHT22;7603;49.432;11.418;2023-11-18T09:04:22;8.10;99.90
15013;DHT22;7603;49.432;11.418;2023-11-18T09:06:49;8.00;99.90
15013;DHT22;7603;49.432;11.418;2023-11-18T09:09:14;7.90;99.90
15013;DHT22;7603;49.432;11.418;2023-11-18T09:11:41;7.90;99.90
15013;DHT22;7603;49.432;11.418;2023-11-18T09:14:07;7.70;99.90
15013;DHT22;7603;49.432;11.418;2023-11-18T09:16:33;7.80;99.90
15013;DHT22;7603;49.432;11.418;2023-11-18T09:19:05;7.80;99.90
15013;DHT22;7603;49.432;11.418;2023-11-18T09:21:32;7.90;99.90
15013;DHT22;7603;49.432;11.418;2023-11-18T09:24:01;7.90;99.90
15013;DHT22;7603;49.432;11.418;2023-11-18T09:26:30;8.00;99.90
15013;DHT22;7603;49.432;11.418;2023-11-18T09:28:56;8.00;99.90
15013;DHT22;7603;49.432;11.418;2023-11-18T09:31:22;8.30;99.90
15013;DHT22;7603;49.432;11.418;2023-11-18T09:33:48;8.40;99.90
15013;DHT22;7603;49.432;11.418;2023-11-18T09:36:18;8.70;99.90
15013;DHT22;7603;49.432;11.418;2023-11-18T09:38:48;8.90;99.90
15013;DHT22;7603;49.432;11.418;2023-11-18T09:41:15;9.00;99.90
15013;DHT22;7603;49.432;11.418;2023-11-18T09:43:43;9.00;99.90
15013;DHT22;7603;49.432;11.418;2023-11-18T09:46:28;8.90;99.90
15013;DHT22;7603;49.432;11.418;2023-11-18T09:49:26;8.90;99.90
15013;DHT22;7603;49.432;11.418;2023-11-18T09:51:59;9.00;99.90
15013;DHT22;7603;49.432;11.418;2023-11-18T09:54:34;9.10;99.90
15013;DHT22;7603;49.432;11.418;2023-11-18T09:59:54;9.50;99.90
15013;DHT22;7603;49.432;11.418;2023-11-18T10:02:24;9.60;99.90
15013;DHT22;7603;49.432;11.418;2023-11-18T10:04:50;9.70;99.90
15013;DHT22;7603;49.432;11.418;2023-11-18T10:07:26;10.20;99.90
15013;DHT22;7603;49.432;11.418;2023-11-18T10:09:54;10.40;99.90
15013;DHT22;7603;49.432;11.418;2023-11-18T10:12:24;10.60;99.90
15013;DHT22;7603;49.432;11.418;2023-11-18T10:14:52;10.90;99.90
15013;DHT22;7603;49.432;11.418;2023-11-18T10:17:18;11.30;99.90
15013;DHT22;7603;49.432;11.418;2023-11-18T10:19:58;11.60;99.90
15013;DHT22;7603;49.432;11.418;2023-11-18T10:22:38;11.70;99.90
15013;DHT22;7603;49.432;11.418;2023-11-18T10:25:03;11.60;99.90
15013;DHT22;7603;49.432;11.418;2023-11-18T10:27:31;11.60;99.90
15013;DHT22;7603;49.432;11.418;2023-11-18T10:30:05;11.50;99.90
15013;DHT22;7603;49.432;11.418;2023-11-18T10:32:55;11.40;99.90
15013;DHT22;7603;49.432;11.418;2023-11-18T10:35:21;11.30;99.90
15013;DHT22;7603;49.432;11.418;2023-11-18T10:37:47;11.20;99.90
15013;DHT22;7603;49.432;11.418;2023-11-18T10:40:14;11.00;99.90
15013;DHT22;7603;49.432;11.418;2023-11-18T10:42:40;10.90;99.90
15013;DHT22;7603;49.432;11.418;2023-11-18T10:45:08;11.00;99.90
15013;DHT22;7603;49.432;11.418;2023-11-18T10:47:42;10.80;99.90
15013;DHT22;7603;49.432;11.418;2023-11-18T10:50:08;10.70;99.90
15013;DHT22;7603;49.432;11.418;2023-11-18T10:52:35;10.80;99.90
15013;DHT22;7603;49.432;11.418;2023-11-18T10:55:06;11.30;99.90
15013;DHT22;7603;49.432;11.418;2023-11-18T10:57:37;12.20;99.90
15013;DHT22;7603;49.432;11.418;2023-11-18T11:00:05;13.60;99.90
15013;DHT22;7603;49.432;11.418;2023-11-18T11:02:39;14.90;99.90
15013;DHT22;7603;49.432;11.418;2023-11-18T11:05:09;16.00;99.90
15013;DHT22;7603;49.432;11.418;2023-11-18T11:07:44;17.10;99.90
15013;DHT22;7603;49.432;11.418;2023-11-18T11:10:10;17.80;99.90
15013;DHT22;7603;49.432;11.418;2023-11-18T11:12:48;18.60;99.90
15013;DHT22;7603;49.432;11.418;2023-11-18T11:15:28;19.40;99.90
15013;DHT22;7603;49.432;11.418;2023-11-18T11:18:07;20.40;96.60
15013;DHT22;7603;49.432;11.418;2023-11-18T11:20:43;21.40;91.40
15013;DHT22;7603;49.432;11.418;2023-11-18T11:26:06;22.70;77.20
15013;DHT22;7603;49.432;11.418;2023-11-18T11:28:42;22.70;69.20
15013;DHT22;7603;49.432;11.418;2023-11-18T11:31:23;22.40;68.20
15013;DHT22;7603;49.432;11.418;2023-11-18T11:33:57;21.80;67.00
15013;DHT22;7603;49.432;11.418;2023-11-18T11:36:44;20.80;67.50
15013;DHT22;7603;49.432;11.418;2023-11-18T11:39:13;20.00;69.10
15013;DHT22;7603;49.432;11.418;2023-11-18T11:41:44;19.10;71.60
15013;DHT22;7603;49.432;11.418;2023-11-18T11:44:14;18.50;72.70
15013;DHT22;7603;49.432;11.418;2023-11-18T11:46:40;18.60;73.60
15013;DHT22;7603;49.432;11.418;2023-11-18T11:49:09;19.70;74.70
15013;DHT22;7603;49.432;11.418;2023-11-18T11:51:47;21.40;70.90
15013;DHT22;7603;49.432;11.418;2023-11-18T11:54:21;23.30;66.40
15013;DHT22;7603;49.432;11.418;2023-11-18T11:56:49;24.80;59.60
15013;DHT22;7603;49.432;11.418;2023-11-18T11:59:55;25.70;55.90
15013;DHT22;7603;49.432;11.418;2023-11-18T12:02:22;25.60;49.20
15013;DHT22;7603;49.432;11.418;2023-11-18T12:04:55;25.10;50.60
15013;DHT22;7603;49.432;11.418;2023-11-18T12:07:27;24.00;50.30
15013;DHT22;7603;49.432;11.418;2023-11-18T12:09:57;23.10;50.70
15013;DHT22;7603;49.432;11.418;2023-11-18T12:12:25;21.50;52.10
15013;DHT22;7603;49.432;11.418;2023-11-18T12:14:55;20.00;54.90
15013;DHT22;7603;49.432;11.418;2023-11-18T12:18:09;18.70;57.40
15013;DHT22;7603;49.432;11.418;2023-11-18T12:20:42;17.40;61.40
15013;DHT22;7603;49.432;11.418;2023-11-18T12:23:10;16.50;64.00
15013;DHT22;7603;49.432;11.418;2023-11-18T12:25:48;15.70;66.90
15013;DHT22;7603;49.432;11.418;2023-11-18T12:30:48;14.00;73.50
15013;DHT22;7603;49.432;11.418;2023-11-18T12:33:24;13.50;76.20
15013;DHT22;7603;49.432;11.418;2023-11-18T12:41:39;12.90;84.40
15013;DHT22;7603;49.432;11.418;2023-11-18T12:44:30;12.40;86.70
15013;DHT22;7603;49.432;11.418;2023-11-18T12:47:04;12.00;89.20
15013;DHT22;7603;49.432;11.418;2023-11-18T12:49:47;11.80;90.30
15013;DHT22;7603;49.432;11.418;2023-11-18T12:52:20;11.60;91.40
15013;DHT22;7603;49.432;11.418;2023-11-18T12:54:47;11.60;92.40
15013;DHT22;7603;49.432;11.418;2023-11-18T12:57:26;11.60;93.10
15013;DHT22;7603;49.432;11.418;2023-11-18T12:59:56;11.60;94.20
15013;DHT22;7603;49.432;11.418;2023-11-18T13:02:22;11.70;94.80
15013;DHT22;7603;49.432;11.418;2023-11-18T13:04:49;11.80;95.00
15013;DHT22;7603;49.432;11.418;2023-11-18T13:07:15;11.80;95.40
15013;DHT22;7603;49.432;11.418;2023-11-18T13:09:43;11.80;95.80
15013;DHT22;7603;49.432;11.418;2023-11-18T13:12:11;11.70;96.20
15013;DHT22;7603;49.432;11.418;2023-11-18T13:14:41;11.70;96.40
15013;DHT22;7603;49.432;11.418;2023-11-18T13:17:14;11.80;96.80
15013;DHT22;7603;49.432;11.418;2023-11-18T13:19:42;12.30;96.90
15013;DHT22;7603;49.432;11.418;2023-11-18T13:22:10;12.90;95.80
15013;DHT22;7603;49.432;11.418;2023-11-18T13:24:40;13.20;93.80
15013;DHT22;7603;49.432;11.418;2023-11-18T13:27:07;13.10;93.20
15013;DHT22;7603;49.432;11.418;2023-11-18T13:29:35;12.80;93.00
15013;DHT22;7603;49.432;11.418;2023-11-18T13:32:02;12.50;93.20
15013;DHT22;7603;49.432;11.418;2023-11-18T13:34:30;12.20;93.90
15013;DHT22;7603;49.432;11.418;2023-11-18T13:37:05;11.90;94.40
15013;DHT22;7603;49.432;11.418;2023-11-18T13:39:33;11.60;95.10
15013;DHT22;7603;49.432;11.418;2023-11-18T13:42:01;11.40;95.80
15013;DHT22;7603;49.432;11.418;2023-11-18T13:44:43;11.20;96.50
15013;DHT22;7603;49.432;11.418;2023-11-18T13:47:10;11.00;96.80
15013;DHT22;7603;49.432;11.418;2023-11-18T13:49:40;10.80;96.70
15013;DHT22;7603;49.432;11.418;2023-11-18T13:52:09;10.80;96.80
15013;DHT22;7603;49.432;11.418;2023-11-18T13:54:37;10.80;97.40
15013;DHT22;7603;49.432;11.418;2023-11-18T13:57:04;10.70;97.70
15013;DHT22;7603;49.432;11.418;2023-11-18T13:59:31;10.70;97.70
15013;DHT22;7603;49.432;11.418;2023-11-18T14:01:58;10.70;97.90
15013;DHT22;7603;49.432;11.418;2023-11-18T14:04:31;10.70;97.90
15013;DHT22;7603;49.432;11.418;2023-11-18T14:07:03;10.60;97.60
15013;DHT22;7603;49.432;11.418;2023-11-18T14:09:33;10.60;97.30
15013;DHT22;7603;49.432;11.418;2023-11-18T14:12:06;10.40;96.10
15013;DHT22;7603;49.432;11.418;2023-11-18T14:14:32;10.30;96.80
15013;DHT22;7603;49.432;11.418;2023-11-18T14:16:58;10.20;97.20
15013;DHT22;7603;49.432;11.418;2023-11-18T14:19:30;10.00;96.80
15013;DHT22;7603;49.432;11.418;2023-11-18T14:21:56;9.80;96.50
15013;DHT22;7603;49.432;11.418;2023-11-18T14:24:22;9.70;96.60
15013;DHT22;7603;49.432;11.418;2023-11-18T14:26:53;9.60;96.80
15013;DHT22;7603;49.432;11.418;2023-11-18T14:29:19;9.50;96.90
15013;DHT22;7603;49.432;11.418;2023-11-18T14:31:45;9.40;97.60
15013;DHT22;7603;49.432;11.418;2023-11-18T14:34:11;9.20;97.70
15013;DHT22;7603;49.432;11.418;2023-11-18T14:36:37;9.10;97.90
15013;DHT22;7603;49.432;11.418;2023-11-18T14:39:03;9.10;98.60
15013;DHT22;7603;49.432;11.418;2023-11-18T14:41:30;8.90;99.20
15013;DHT22;7603;49.432;11.418;2023-11-18T14:43:57;8.60;99.90
15013;DHT22;7603;49.432;11.418;2023-11-18T14:46:23;8.60;99.90
15013;DHT22;7603;49.432;11.418;2023-11-18T14:48:49;8.40;99.90
15013;DHT22;7603;49.432;11.418;2023-11-18T14:51:16;8.30;99.90
15013;DHT22;7603;49.432;11.418;2023-11-18T14:53:41;8.10;99.90
15013;DHT22;7603;49.432;11.418;2023-11-18T14:56:09;7.90;99.90
15013;DHT22;7603;49.432;11.418;2023-11-18T14:58:34;7.70;99.90
15013;DHT22;7603;49.432;11.418;2023-11-18T15:01:04;7.50;99.90
15013;DHT22;7603;49.432;11.418;2023-11-18T15:03:33;7.30;99.90
15013;DHT22;7603;49.432;11.418;2023-11-18T15:05:58;7.10;99.90
15013;DHT22;7603;49.432;11.418;2023-11-18T15:08:24;7.00;99.90
15013;DHT22;7603;49.432;11.418;2023-11-18T15:10:49;6.90;99.90
15013;DHT22;7603;49.432;11.418;2023-11-18T15:13:16;6.80;99.90
15013;DHT22;7603;49.432;11.418;2023-11-18T15:15:43;6.70;99.90
15013;DHT22;7603;49.432;11.418;2023-11-18T15:18:10;6.50;99.90
15013;DHT22;7603;49.432;11.418;2023-11-18T15:20:49;6.50;99.90
15013;DHT22;7603;49.432;11.418;2023-11-18T15:23:16;6.30;99.90
15013;DHT22;7603;49.432;11.418;2023-11-18T15:25:48;6.20;99.90
15013;DHT22;7603;49.432;11.418;2023-11-18T15:28:16;6.10;99.90
15013;DHT22;7603;49.432;11.418;2023-11-18T15:30:43;6.00;99.90
15013;DHT22;7603;49.432;11.418;2023-11-18T15:33:09;5.90;99.90
15013;DHT22;7603;49.432;11.418;2023-11-18T15:35:37;5.80;99.90
15013;DHT22;7603;49.432;11.418;2023-11-18T15:38:04;5.80;99.90
15013;DHT22;7603;49.432;11.418;2023-11-18T15:40:34;5.70;99.90
15013;DHT22;7603;49.432;11.418;2023-11-18T15:43:04;5.70;99.90
15013;DHT22;7603;49.432;11.418;2023-11-18T15:45:33;5.60;99.90
15013;DHT22;7603;49.432;11.418;2023-11-18T15:48:00;5.60;99.90
15013;DHT22;7603;49.432;11.418;2023-11-18T15:50:26;5.60;99.90
15013;DHT22;7603;49.432;11.418;2023-11-18T15:52:54;5.60;99.90
15013;DHT22;7603;49.432;11.418;2023-11-18T15:55:21;5.50;99.90
15013;DHT22;7603;49.432;11.418;2023-11-18T15:57:48;5.50;99.90
15013;DHT22;7603;49.432;11.418;2023-11-18T16:00:25;5.50;99.90
15013;DHT22;7603;49.432;11.418;2023-11-18T16:02:53;5.50;99.90